createdAt,value
2018-09-01T00:00:55.772Z,14.17
2018-09-01T00:01:55.757Z,14.20
2018-09-01T00:02:55.738Z,14.21
2018-09-01T00:03:55.720Z,14.20
2018-09-01T00:04:55.703Z,14.18
2018-09-01T00:05:55.686Z,14.18
2018-09-01T00:06:55.668Z,14.15
2018-09-01T00:07:55.651Z,14.32
2018-09-01T00:08:55.642Z,14.24
2018-09-01T00:09:55.619Z,14.24
2018-09-01T00:10:55.598Z,14.24
2018-09-01T00:11:55.585Z,14.17
2018-09-01T00:12:55.561Z,14.15
2018-09-01T00:13:55.551Z,14.24
2018-09-01T00:14:55.530Z,14.22
2018-09-01T00:15:55.514Z,14.18
2018-09-01T00:16:55.494Z,14.24
2018-09-01T00:17:55.482Z,14.15
2018-09-01T00:18:55.460Z,14.14
2018-09-01T00:19:55.443Z,14.12
2018-09-01T00:20:55.438Z,14.17
2018-09-01T00:21:55.408Z,14.24
2018-09-01T00:22:55.389Z,14.18
2018-09-01T00:23:55.375Z,14.14
2018-09-01T00:24:55.359Z,14.15
2018-09-01T00:25:55.340Z,14.20
2018-09-01T00:26:55.320Z,14.17
2018-09-01T00:27:55.305Z,14.17
2018-09-01T00:28:55.288Z,14.17
2018-09-01T00:29:55.271Z,14.20
2018-09-01T00:30:55.250Z,14.17
2018-09-01T00:31:55.234Z,14.14
2018-09-01T00:32:55.217Z,14.17
2018-09-01T00:33:55.201Z,14.17
2018-09-01T00:34:55.184Z,14.18
2018-09-01T00:35:55.166Z,14.14
2018-09-01T00:36:55.151Z,14.17
2018-09-01T00:37:55.133Z,14.17
2018-09-01T00:38:55.111Z,14.15
2018-09-01T00:39:55.098Z,14.03
2018-09-01T00:40:55.082Z,14.18
2018-09-01T00:41:55.060Z,14.17
2018-09-01T00:42:55.043Z,14.17
2018-09-01T00:43:55.024Z,14.20
2018-09-01T00:44:55.017Z,14.10
2018-09-01T00:45:54.989Z,14.09
2018-09-01T00:46:54.973Z,14.06
2018-09-01T00:47:54.957Z,14.07
2018-09-01T00:48:54.941Z,14.14
2018-09-01T00:49:54.927Z,14.09
2018-09-01T00:50:54.904Z,14.10
2018-09-01T00:51:54.887Z,14.06
2018-09-01T00:52:54.868Z,14.18
2018-09-01T00:53:54.853Z,14.10
2018-09-01T00:54:54.834Z,14.27
2018-09-01T00:55:54.816Z,14.32
2018-09-01T00:56:54.806Z,14.33
2018-09-01T00:57:54.781Z,14.35
2018-09-01T00:58:54.767Z,14.42
2018-09-01T00:59:54.749Z,14.40
2018-09-01T01:00:54.729Z,14.37
2018-09-01T01:01:54.710Z,14.33
2018-09-01T01:02:54.692Z,14.33
2018-09-01T01:03:54.675Z,14.28
2018-09-01T01:04:54.663Z,14.14
2018-09-01T01:05:54.652Z,14.15
2018-09-01T01:06:54.623Z,14.07
2018-09-01T01:07:54.607Z,14.15
2018-09-01T01:08:54.589Z,14.04
2018-09-01T01:09:54.577Z,14.02
2018-09-01T01:10:54.560Z,14.03
2018-09-01T01:11:54.537Z,14.04
2018-09-01T01:12:54.521Z,14.04
2018-09-01T01:13:54.503Z,14.04
2018-09-01T01:14:54.484Z,14.07
2018-09-01T01:15:54.468Z,14.07
2018-09-01T01:16:54.450Z,14.06
2018-09-01T01:17:54.431Z,14.04
2018-09-01T01:18:54.416Z,14.07
2018-09-01T01:19:54.396Z,14.02
2018-09-01T01:20:54.380Z,14.02
2018-09-01T01:21:54.389Z,14.07
2018-09-01T01:22:54.345Z,13.92
2018-09-01T01:23:54.324Z,14.02
2018-09-01T01:24:54.310Z,14.09
2018-09-01T01:25:54.292Z,14.06
2018-09-01T01:26:54.275Z,14.12
2018-09-01T01:27:54.256Z,14.04
2018-09-01T01:28:54.240Z,14.03
2018-09-01T01:29:54.222Z,14.03
2018-09-01T01:30:54.203Z,14.03
2018-09-01T01:31:54.187Z,14.03
2018-09-01T01:32:54.170Z,14.10
2018-09-01T01:33:54.150Z,13.99
2018-09-01T01:34:54.133Z,13.97
2018-09-01T01:35:54.115Z,13.99
2018-09-01T01:36:54.110Z,14.00
2018-09-01T01:37:54.080Z,13.95
2018-09-01T01:38:54.069Z,13.99
2018-09-01T01:39:54.044Z,13.96
2018-09-01T01:40:54.036Z,14.06
2018-09-01T01:41:54.010Z,14.06
2018-09-01T01:42:53.993Z,14.06
2018-09-01T01:43:53.974Z,14.00
2018-09-01T01:44:53.958Z,14.00
2018-09-01T01:45:53.940Z,14.02
2018-09-01T01:46:53.922Z,14.00
2018-09-01T01:47:53.907Z,13.88
2018-09-01T01:48:53.890Z,13.91
2018-09-01T01:49:53.871Z,13.88
2018-09-01T01:50:53.865Z,13.88
2018-09-01T01:51:53.834Z,13.85
2018-09-01T01:52:53.817Z,13.81
2018-09-01T01:53:53.803Z,13.81
2018-09-01T01:54:53.782Z,13.71
2018-09-01T01:55:53.766Z,13.64
2018-09-01T01:56:53.749Z,13.66
2018-09-01T01:57:53.727Z,13.59
2018-09-01T01:58:53.710Z,13.63
2018-09-01T01:59:53.692Z,13.54
2018-09-01T02:00:53.675Z,13.59
2018-09-01T02:01:53.662Z,13.48
2018-09-01T02:02:53.638Z,13.44
2018-09-01T02:03:53.723Z,13.41
2018-09-01T02:04:53.605Z,13.42
2018-09-01T02:05:53.585Z,13.38
2018-09-01T02:07:36.094Z,13.26
2018-09-01T02:08:36.076Z,13.33
2018-09-01T02:09:36.058Z,13.38
2018-09-01T02:10:36.040Z,13.23
2018-09-01T02:11:36.022Z,13.17
2018-09-01T02:12:36.007Z,13.20
2018-09-01T02:13:35.987Z,13.14
2018-09-01T02:14:35.970Z,13.11
2018-09-01T02:15:35.955Z,13.17
2018-09-01T02:16:35.933Z,13.14
2018-09-01T02:17:35.916Z,13.14
2018-09-01T02:18:35.897Z,13.11
2018-09-01T02:19:35.879Z,13.17
2018-09-01T02:20:35.862Z,13.20
2018-09-01T02:21:35.850Z,13.15
2018-09-01T02:22:35.827Z,13.12
2018-09-01T02:23:35.806Z,13.08
2018-09-01T02:24:35.789Z,13.11
2018-09-01T02:25:35.773Z,13.14
2018-09-01T02:26:35.756Z,13.08
2018-09-01T02:27:35.735Z,13.03
2018-09-01T02:28:35.718Z,13.05
2018-09-01T02:29:35.706Z,13.01
2018-09-01T02:30:35.682Z,13.14
2018-09-01T02:31:35.664Z,13.05
2018-09-01T02:32:35.646Z,13.04
2018-09-01T02:33:35.627Z,13.04
2018-09-01T02:34:35.610Z,12.96
2018-09-01T02:35:35.590Z,13.00
2018-09-01T02:36:35.573Z,12.86
2018-09-01T02:37:35.554Z,12.83
2018-09-01T02:38:35.538Z,12.82
2018-09-01T02:39:35.515Z,12.83
2018-09-01T02:40:35.550Z,12.83
2018-09-01T02:41:35.482Z,12.68
2018-09-01T02:42:35.462Z,12.68
2018-09-01T02:43:35.444Z,12.72
2018-09-01T02:44:35.426Z,12.71
2018-09-01T02:45:35.409Z,12.64
2018-09-01T02:46:35.388Z,12.67
2018-09-01T02:47:35.372Z,12.65
2018-09-01T02:48:35.355Z,12.62
2018-09-01T02:49:35.337Z,12.62
2018-09-01T02:50:35.317Z,12.62
2018-09-01T02:51:35.301Z,12.62
2018-09-01T02:52:35.286Z,12.57
2018-09-01T02:53:35.270Z,12.65
2018-09-01T02:54:35.243Z,12.49
2018-09-01T02:55:35.224Z,12.46
2018-09-01T02:56:35.207Z,12.50
2018-09-01T02:57:35.189Z,12.56
2018-09-01T02:58:35.171Z,12.50
2018-09-01T02:59:35.154Z,12.49
2018-09-01T03:00:35.133Z,12.46
2018-09-01T03:01:35.116Z,12.41
2018-09-01T03:02:35.100Z,12.46
2018-09-01T03:03:35.081Z,12.42
2018-09-01T03:04:35.058Z,12.39
2018-09-01T03:05:35.055Z,12.39
2018-09-01T03:06:35.023Z,12.41
2018-09-01T03:07:35.012Z,12.46
2018-09-01T03:08:34.989Z,12.45
2018-09-01T03:09:34.967Z,12.38
2018-09-01T03:10:34.947Z,12.42
2018-09-01T03:11:34.930Z,12.42
2018-09-01T03:12:34.909Z,12.41
2018-09-01T03:13:34.892Z,12.37
2018-09-01T03:14:34.872Z,12.41
2018-09-01T03:15:34.854Z,12.38
2018-09-01T03:16:34.839Z,12.28
2018-09-01T03:17:34.821Z,12.32
2018-09-01T03:18:34.802Z,12.19
2018-09-01T03:19:34.784Z,12.19
2018-09-01T03:20:34.763Z,12.19
2018-09-01T03:21:34.744Z,12.10
2018-09-01T03:22:34.725Z,12.10
2018-09-01T03:23:34.706Z,12.20
2018-09-01T03:24:34.688Z,12.17
2018-09-01T03:25:34.669Z,12.19
2018-09-01T03:26:34.653Z,12.16
2018-09-01T03:27:34.631Z,12.12
2018-09-01T03:28:34.614Z,12.12
2018-09-01T03:29:34.597Z,12.09
2018-09-01T03:30:34.574Z,12.05
2018-09-01T03:31:34.564Z,12.02
2018-09-01T03:32:34.537Z,12.07
2018-09-01T03:33:34.517Z,12.07
2018-09-01T03:34:34.504Z,12.09
2018-09-01T03:35:34.481Z,12.05
2018-09-01T03:36:34.463Z,12.24
2018-09-01T03:37:34.445Z,12.21
2018-09-01T03:38:34.421Z,12.23
2018-09-01T03:39:34.406Z,12.20
2018-09-01T03:40:34.387Z,12.16
2018-09-01T03:41:34.367Z,12.16
2018-09-01T03:42:34.349Z,12.04
2018-09-01T03:43:34.329Z,12.02
2018-09-01T03:44:34.317Z,12.09
2018-09-01T03:45:34.293Z,12.02
2018-09-01T03:46:34.273Z,11.94
2018-09-01T03:47:34.255Z,11.99
2018-09-01T03:48:34.235Z,11.98
2018-09-01T03:49:34.217Z,11.96
2018-09-01T03:50:34.197Z,11.96
2018-09-01T03:51:34.178Z,11.88
2018-09-01T03:52:34.163Z,11.90
2018-09-01T03:53:34.141Z,11.91
2018-09-01T03:54:34.122Z,11.86
2018-09-01T03:55:34.104Z,11.80
2018-09-01T03:56:34.085Z,11.82
2018-09-01T03:57:34.066Z,11.78
2018-09-01T03:58:34.048Z,11.78
2018-09-01T03:59:34.029Z,11.78
2018-09-01T04:00:34.008Z,11.75
2018-09-01T04:01:33.994Z,11.72
2018-09-01T04:02:33.970Z,11.72
2018-09-01T04:03:33.952Z,11.70
2018-09-01T04:04:33.932Z,11.64
2018-09-01T04:05:33.914Z,11.62
2018-09-01T04:06:33.894Z,11.64
2018-09-01T04:07:33.874Z,11.61
2018-09-01T04:08:33.865Z,11.57
2018-09-01T04:09:33.837Z,11.57
2018-09-01T04:10:33.822Z,11.54
2018-09-01T04:11:33.799Z,11.51
2018-09-01T04:12:33.780Z,11.47
2018-09-01T04:13:33.760Z,11.47
2018-09-01T04:14:33.741Z,11.55
2018-09-01T04:15:33.737Z,11.49
2018-09-01T04:16:33.704Z,11.43
2018-09-01T04:17:33.683Z,11.43
2018-09-01T04:18:33.669Z,11.44
2018-09-01T04:19:33.644Z,11.42
2018-09-01T04:20:33.632Z,11.47
2018-09-01T04:21:33.615Z,11.51
2018-09-01T04:22:33.589Z,11.47
2018-09-01T04:23:33.571Z,11.51
2018-09-01T04:24:36.169Z,11.44
2018-09-01T04:25:33.536Z,11.40
2018-09-01T04:26:33.511Z,11.44
2018-09-01T04:27:33.495Z,11.57
2018-09-01T04:28:33.472Z,11.46
2018-09-01T04:29:33.453Z,11.40
2018-09-01T04:30:33.433Z,11.49
2018-09-01T04:31:33.414Z,11.51
2018-09-01T04:32:33.396Z,11.52
2018-09-01T04:33:33.375Z,11.55
2018-09-01T04:34:33.357Z,11.57
2018-09-01T04:35:33.344Z,11.61
2018-09-01T04:36:33.320Z,11.54
2018-09-01T04:37:33.300Z,11.51
2018-09-01T04:38:33.279Z,11.55
2018-09-01T04:39:33.276Z,11.67
2018-09-01T04:40:33.240Z,11.57
2018-09-01T04:41:33.222Z,11.52
2018-09-01T04:42:33.202Z,11.61
2018-09-01T04:43:33.183Z,11.65
2018-09-01T04:44:33.165Z,11.64
2018-09-01T04:45:33.145Z,11.70
2018-09-01T04:46:33.126Z,11.61
2018-09-01T04:47:33.107Z,11.65
2018-09-01T04:48:33.089Z,11.65
2018-09-01T04:49:33.067Z,11.64
2018-09-01T04:50:33.049Z,11.57
2018-09-01T04:51:33.027Z,11.69
2018-09-01T04:52:33.008Z,11.54
2018-09-01T04:53:32.989Z,11.64
2018-09-01T04:54:32.969Z,11.52
2018-09-01T04:55:32.951Z,11.49
2018-09-01T04:56:32.931Z,11.51
2018-09-01T04:57:32.919Z,11.58
2018-09-01T04:58:32.893Z,11.55
2018-09-01T04:59:32.881Z,11.52
2018-09-01T05:00:32.853Z,11.49
2018-09-01T05:01:32.836Z,11.47
2018-09-01T05:02:32.819Z,11.51
2018-09-01T05:03:32.797Z,11.55
2018-09-01T05:04:32.778Z,11.51
2018-09-01T05:05:32.759Z,11.46
2018-09-01T05:06:32.739Z,11.64
2018-09-01T05:07:32.723Z,11.67
2018-09-01T05:08:32.701Z,11.65
2018-09-01T05:09:32.681Z,11.65
2018-09-01T05:10:32.663Z,11.69
2018-09-01T05:11:32.642Z,11.64
2018-09-01T05:12:32.624Z,11.62
2018-09-01T05:13:32.605Z,11.65
2018-09-01T05:14:32.586Z,11.76
2018-09-01T05:15:32.567Z,11.72
2018-09-01T05:16:32.546Z,11.72
2018-09-01T05:17:32.525Z,11.70
2018-09-01T05:18:32.510Z,11.73
2018-09-01T05:19:32.489Z,11.76
2018-09-01T05:20:32.467Z,11.80
2018-09-01T05:21:32.447Z,11.75
2018-09-01T05:22:32.429Z,11.73
2018-09-01T05:23:32.410Z,11.76
2018-09-01T05:24:32.392Z,11.85
2018-09-01T05:25:32.370Z,11.79
2018-09-01T05:26:32.350Z,11.83
2018-09-01T05:27:32.333Z,11.95
2018-09-01T05:28:32.358Z,12.02
2018-09-01T05:29:32.293Z,11.88
2018-09-01T05:30:32.279Z,12.02
2018-09-01T05:31:32.254Z,11.96
2018-09-01T05:32:32.234Z,12.09
2018-09-01T05:33:32.220Z,12.05
2018-09-01T05:34:32.199Z,12.07
2018-09-01T05:35:32.177Z,12.13
2018-09-01T05:36:32.227Z,12.10
2018-09-01T05:37:32.145Z,12.13
2018-09-01T05:38:32.120Z,12.17
2018-09-01T05:39:32.102Z,12.16
2018-09-01T05:40:32.081Z,12.04
2018-09-01T05:41:32.064Z,12.05
2018-09-01T05:42:32.046Z,12.04
2018-09-01T05:43:32.054Z,12.19
2018-09-01T05:44:32.005Z,12.20
2018-09-01T05:45:31.988Z,12.21
2018-09-01T05:46:31.967Z,12.27
2018-09-01T05:47:31.951Z,12.31
2018-09-01T05:48:31.928Z,12.27
2018-09-01T05:49:31.909Z,12.41
2018-09-01T05:50:31.888Z,12.42
2018-09-01T05:51:31.871Z,12.45
2018-09-01T05:52:31.852Z,12.52
2018-09-01T05:53:31.837Z,12.56
2018-09-01T05:54:31.816Z,12.67
2018-09-01T05:55:31.794Z,12.72
2018-09-01T05:56:31.781Z,12.71
2018-09-01T05:57:31.760Z,12.75
2018-09-01T05:58:31.736Z,12.71
2018-09-01T05:59:31.719Z,12.72
2018-09-01T06:00:31.736Z,12.78
2018-09-01T06:01:31.683Z,12.75
2018-09-01T06:02:31.662Z,12.86
2018-09-01T06:03:31.643Z,12.86
2018-09-01T06:04:31.626Z,13.07
2018-09-01T06:05:31.606Z,13.12
2018-09-01T06:06:31.588Z,13.15
2018-09-01T06:07:31.582Z,13.20
2018-09-01T06:08:31.548Z,13.32
2018-09-01T06:09:31.533Z,13.44
2018-09-01T06:10:31.516Z,13.41
2018-09-01T06:11:31.492Z,13.59
2018-09-01T06:12:31.475Z,13.57
2018-09-01T06:13:31.458Z,13.62
2018-09-01T06:14:31.438Z,13.67
2018-09-01T06:15:31.422Z,13.69
2018-09-01T06:16:31.400Z,13.81
2018-09-01T06:17:31.476Z,13.82
2018-09-01T06:18:31.368Z,13.87
2018-09-01T06:19:31.345Z,13.96
2018-09-01T06:20:31.326Z,14.02
2018-09-01T06:21:31.308Z,14.06
2018-09-01T06:22:31.902Z,14.17
2018-09-01T06:23:31.271Z,14.24
2018-09-01T06:24:31.252Z,14.40
2018-09-01T06:25:31.235Z,14.51
2018-09-01T06:26:31.216Z,14.46
2018-09-01T06:27:31.201Z,14.58
2018-09-01T06:28:31.181Z,14.78
2018-09-01T06:29:31.166Z,14.78
2018-09-01T06:30:31.144Z,14.99
2018-09-01T06:31:31.181Z,15.06
2018-09-01T06:32:31.109Z,15.17
2018-09-01T06:33:31.091Z,15.31
2018-09-01T06:34:31.073Z,15.34
2018-09-01T06:35:31.056Z,15.54
2018-09-01T06:36:31.037Z,15.49
2018-09-01T06:37:31.042Z,15.57
2018-09-01T06:38:31.005Z,15.69
2018-09-01T06:39:30.985Z,15.78
2018-09-01T06:40:30.969Z,16.00
2018-09-01T06:41:30.950Z,15.93
2018-09-01T06:42:30.932Z,16.01
2018-09-01T06:43:30.917Z,16.07
2018-09-01T06:44:30.899Z,16.24
2018-09-01T06:45:30.881Z,16.27
2018-09-01T06:46:30.862Z,16.39
2018-09-01T06:47:30.850Z,16.45
2018-09-01T06:48:30.830Z,16.56
2018-09-01T06:49:30.813Z,16.53
2018-09-01T06:50:30.795Z,16.79
2018-09-01T06:51:30.809Z,16.81
2018-09-01T06:52:30.763Z,16.93
2018-09-01T06:53:30.746Z,16.94
2018-09-01T06:54:30.730Z,17.12
2018-09-01T06:55:30.710Z,17.19
2018-09-01T06:56:30.695Z,17.19
2018-09-01T06:57:30.682Z,17.34
2018-09-01T06:58:30.669Z,17.52
2018-09-01T06:59:30.644Z,17.59
2018-09-01T07:00:30.634Z,17.55
2018-09-01T07:01:30.612Z,17.66
2018-09-01T07:02:30.598Z,17.79
2018-09-01T07:03:30.582Z,18.11
2018-09-01T07:04:30.573Z,18.29
2018-09-01T07:05:30.548Z,18.75
2018-09-01T07:06:30.532Z,19.25
2018-09-01T07:07:30.517Z,19.84
2018-09-01T07:08:30.501Z,20.36
2018-09-01T07:09:30.485Z,20.98
2018-09-01T07:10:30.480Z,21.54
2018-09-01T07:11:30.458Z,22.03
2018-09-01T07:12:30.439Z,22.37
2018-09-01T07:13:30.426Z,22.94
2018-09-01T07:14:30.413Z,23.39
2018-09-01T07:15:30.397Z,23.61
2018-09-01T07:16:30.385Z,23.93
2018-09-01T07:17:30.375Z,24.12
2018-09-01T07:18:30.354Z,24.30
2018-09-01T07:19:30.340Z,24.49
2018-09-01T07:20:30.327Z,24.47
2018-09-01T07:21:30.314Z,24.42
2018-09-01T07:22:30.302Z,24.28
2018-09-01T07:23:30.289Z,24.10
2018-09-01T07:24:30.276Z,24.05
2018-09-01T07:25:30.264Z,23.85
2018-09-01T07:26:30.254Z,23.83
2018-09-01T07:27:30.241Z,23.66
2018-09-01T07:28:30.228Z,23.68
2018-09-01T07:29:30.219Z,23.48
2018-09-01T07:30:30.424Z,23.42
2018-09-01T07:31:30.633Z,23.43
2018-09-01T07:32:30.193Z,23.40
2018-09-01T07:33:30.177Z,23.42
2018-09-01T07:34:30.170Z,23.46
2018-09-01T07:35:30.152Z,23.38
2018-09-01T07:36:30.142Z,23.50
2018-09-01T07:37:30.137Z,23.31
2018-09-01T07:38:30.120Z,23.28
2018-09-01T07:39:30.109Z,23.31
2018-09-01T07:40:30.100Z,23.27
2018-09-01T07:41:30.098Z,23.22
2018-09-01T07:42:30.077Z,23.27
2018-09-01T07:43:30.067Z,23.28
2018-09-01T07:44:30.059Z,23.40
2018-09-01T07:45:30.050Z,23.47
2018-09-01T07:46:30.037Z,23.70
2018-09-01T07:47:30.029Z,24.03
2018-09-01T07:48:30.019Z,24.02
2018-09-01T07:49:30.011Z,24.24
2018-09-01T07:50:29.998Z,24.46
2018-09-01T07:51:29.991Z,24.65
2018-09-01T07:52:29.976Z,24.90
2018-09-01T07:53:29.985Z,25.20
2018-09-01T07:54:30.013Z,25.67
2018-09-01T07:55:29.953Z,26.07
2018-09-01T07:56:29.940Z,26.52
2018-09-01T07:57:29.933Z,27.12
2018-09-01T07:58:29.926Z,27.62
2018-09-01T07:59:29.914Z,28.11
2018-09-01T08:00:29.902Z,28.64
2018-09-01T08:01:29.893Z,29.18
2018-09-01T08:02:29.892Z,29.71
2018-09-01T08:03:29.876Z,30.04
2018-09-01T08:04:29.867Z,30.29
2018-09-01T08:05:29.864Z,30.58
2018-09-01T08:06:29.853Z,30.80
2018-09-01T08:07:29.900Z,30.38
2018-09-01T08:08:29.836Z,30.05
2018-09-01T08:09:29.836Z,29.90
2018-09-01T08:10:29.822Z,29.71
2018-09-01T08:11:29.817Z,30.01
2018-09-01T08:12:29.805Z,30.26
2018-09-01T08:13:29.799Z,30.51
2018-09-01T08:14:29.827Z,30.91
2018-09-01T08:15:29.786Z,31.23
2018-09-01T08:16:29.777Z,31.69
2018-09-01T08:17:29.773Z,32.00
2018-09-01T08:18:29.762Z,31.93
2018-09-01T08:19:29.765Z,32.08
2018-09-01T08:20:29.751Z,32.26
2018-09-01T08:21:29.793Z,32.66
2018-09-01T08:22:29.735Z,32.75
2018-09-01T08:23:29.729Z,33.06
2018-09-01T08:24:29.726Z,33.23
2018-09-01T08:25:29.724Z,33.06
2018-09-01T08:26:29.717Z,33.07
2018-09-01T08:27:29.708Z,33.07
2018-09-01T08:28:29.699Z,32.60
2018-09-01T08:29:29.699Z,32.47
2018-09-01T08:30:29.686Z,32.55
2018-09-01T08:31:29.683Z,32.75
2018-09-01T08:32:29.678Z,32.97
2018-09-01T08:33:29.729Z,33.26
2018-09-01T08:34:29.667Z,33.32
2018-09-01T08:35:29.656Z,33.26
2018-09-01T08:36:29.657Z,33.49
2018-09-01T08:37:29.649Z,33.82
2018-09-01T08:38:29.647Z,33.93
2018-09-01T08:39:29.645Z,33.84
2018-09-01T08:40:29.636Z,33.94
2018-09-01T08:41:29.629Z,33.82
2018-09-01T08:42:29.623Z,33.79
2018-09-01T08:43:29.620Z,33.07
2018-09-01T08:44:29.615Z,32.23
2018-09-01T08:45:29.663Z,31.76
2018-09-01T08:46:29.604Z,31.19
2018-09-01T08:47:29.604Z,31.06
2018-09-01T08:48:29.603Z,31.34
2018-09-01T08:49:29.596Z,31.25
2018-09-01T08:50:29.592Z,31.14
2018-09-01T08:51:29.580Z,31.28
2018-09-01T08:52:29.579Z,31.43
2018-09-01T08:53:29.576Z,31.61
2018-09-01T08:54:29.566Z,31.91
2018-09-01T08:55:29.562Z,31.81
2018-09-01T08:56:29.578Z,31.62
2018-09-01T08:57:29.553Z,31.63
2018-09-01T08:58:29.546Z,31.23
2018-09-01T08:59:29.543Z,31.31
2018-09-01T09:00:29.543Z,31.21
2018-09-01T09:01:29.538Z,30.65
2018-09-01T09:02:29.538Z,30.27
2018-09-01T09:03:29.523Z,30.02
2018-09-01T09:04:29.519Z,29.78
2018-09-01T09:05:29.572Z,29.39
2018-09-01T09:06:29.507Z,29.23
2018-09-01T09:07:29.503Z,29.33
2018-09-01T09:08:29.501Z,29.30
2018-09-01T09:09:29.494Z,29.24
2018-09-01T09:10:29.488Z,29.05
2018-09-01T09:11:29.526Z,28.61
2018-09-01T09:12:29.476Z,28.41
2018-09-01T09:13:29.477Z,28.29
2018-09-01T09:14:29.468Z,28.81
2018-09-01T09:15:29.461Z,29.24
2018-09-01T09:16:29.456Z,29.53
2018-09-01T09:17:29.451Z,29.51
2018-09-01T09:18:29.468Z,29.64
2018-09-01T09:19:29.450Z,29.90
2018-09-01T09:20:29.434Z,30.01
2018-09-01T09:21:29.427Z,29.87
2018-09-01T09:22:29.423Z,29.67
2018-09-01T09:23:29.417Z,29.53
2018-09-01T09:24:29.412Z,29.43
2018-09-01T09:25:29.406Z,29.26
2018-09-01T09:26:29.400Z,28.85
2018-09-01T09:27:29.396Z,28.66
2018-09-01T09:28:29.391Z,28.37
2018-09-01T09:29:29.384Z,28.04
2018-09-01T09:30:29.377Z,27.77
2018-09-01T09:31:29.369Z,27.39
2018-09-01T09:32:29.364Z,27.22
2018-09-01T09:33:29.360Z,27.17
2018-09-01T09:34:29.420Z,27.62
2018-09-01T09:35:29.347Z,27.97
2018-09-01T09:36:29.344Z,28.21
2018-09-01T09:37:29.336Z,28.04
2018-09-01T09:38:29.331Z,27.84
2018-09-01T09:39:29.325Z,27.82
2018-09-01T09:40:29.320Z,27.62
2018-09-01T09:41:29.313Z,27.39
2018-09-01T09:42:29.309Z,27.29
2018-09-01T09:43:29.303Z,27.18
2018-09-01T09:44:29.296Z,27.25
2018-09-01T09:45:29.288Z,27.90
2018-09-01T09:46:29.293Z,28.34
2018-09-01T09:47:29.277Z,28.92
2018-09-01T09:48:29.279Z,29.52
2018-09-01T09:49:29.268Z,29.97
2018-09-01T09:50:29.262Z,30.49
2018-09-01T09:51:29.255Z,30.84
2018-09-01T09:52:29.251Z,31.23
2018-09-01T09:53:29.247Z,31.84
2018-09-01T09:54:29.240Z,32.00
2018-09-01T09:55:29.236Z,31.96
2018-09-01T09:56:29.231Z,31.63
2018-09-01T09:57:29.228Z,31.58
2018-09-01T09:58:29.221Z,31.89
2018-09-01T09:59:29.221Z,32.04
2018-09-01T10:00:29.218Z,32.28
2018-09-01T10:01:29.214Z,32.56
2018-09-01T10:02:29.271Z,32.37
2018-09-01T10:03:29.210Z,32.18
2018-09-01T10:04:32.226Z,31.84
2018-09-01T10:05:29.209Z,31.65
2018-09-01T10:06:29.190Z,31.51
2018-09-01T10:07:29.187Z,31.31
2018-09-01T10:08:29.189Z,31.10
2018-09-01T10:09:29.181Z,30.88
2018-09-01T10:10:29.175Z,30.54
2018-09-01T10:11:29.175Z,30.26
2018-09-01T10:12:29.169Z,30.00
2018-09-01T10:13:29.161Z,29.76
2018-09-01T10:14:29.161Z,29.58
2018-09-01T10:15:29.163Z,29.45
2018-09-01T10:16:29.150Z,29.37
2018-09-01T10:17:29.147Z,29.30
2018-09-01T10:18:29.141Z,29.26
2018-09-01T10:19:29.139Z,29.33
2018-09-01T10:20:29.147Z,29.90
2018-09-01T10:21:29.127Z,30.13
2018-09-01T10:22:29.121Z,30.55
2018-09-01T10:23:29.120Z,31.06
2018-09-01T10:24:29.114Z,31.48
2018-09-01T10:25:29.120Z,32.01
2018-09-01T10:26:29.106Z,32.60
2018-09-01T10:27:29.101Z,33.22
2018-09-01T10:28:29.100Z,33.82
2018-09-01T10:29:29.093Z,34.06
2018-09-01T10:30:29.097Z,33.66
2018-09-01T10:31:29.112Z,33.45
2018-09-01T10:32:29.083Z,33.75
2018-09-01T10:33:29.092Z,33.90
2018-09-01T10:34:29.074Z,33.60
2018-09-01T10:35:29.078Z,33.19
2018-09-01T10:36:29.067Z,33.72
2018-09-01T10:37:29.065Z,34.10
2018-09-01T10:38:29.162Z,34.59
2018-09-01T10:39:29.056Z,34.99
2018-09-01T10:40:29.059Z,35.43
2018-09-01T10:41:29.054Z,35.78
2018-09-01T10:42:29.048Z,35.99
2018-09-01T10:43:29.047Z,36.22
2018-09-01T10:44:29.046Z,35.97
2018-09-01T10:45:29.042Z,35.52
2018-09-01T10:46:29.042Z,35.14
2018-09-01T10:47:29.037Z,34.72
2018-09-01T10:48:29.035Z,34.30
2018-09-01T10:49:29.031Z,33.98
2018-09-01T10:50:29.035Z,33.69
2018-09-01T10:51:29.034Z,33.29
2018-09-01T10:52:29.023Z,33.18
2018-09-01T10:53:29.021Z,32.62
2018-09-01T10:54:29.017Z,32.37
2018-09-01T10:55:29.018Z,32.08
2018-09-01T10:56:29.015Z,31.93
2018-09-01T10:57:29.008Z,31.63
2018-09-01T10:58:29.012Z,31.32
2018-09-01T10:59:29.287Z,31.06
2018-09-01T11:00:29.002Z,30.79
2018-09-01T11:01:29.002Z,30.38
2018-09-01T11:02:28.994Z,30.27
2018-09-01T11:03:28.988Z,30.10
2018-09-01T11:04:28.985Z,29.90
2018-09-01T11:05:29.032Z,29.80
2018-09-01T11:06:28.982Z,29.76
2018-09-01T11:07:28.975Z,29.74
2018-09-01T11:08:28.971Z,29.51
2018-09-01T11:09:28.966Z,29.30
2018-09-01T11:10:28.961Z,29.06
2018-09-01T11:11:28.956Z,28.88
2018-09-01T11:12:28.953Z,28.85
2018-09-01T11:13:28.952Z,28.77
2018-09-01T11:14:28.941Z,28.64
2018-09-01T11:15:28.939Z,28.85
2018-09-01T11:16:28.936Z,28.95
2018-09-01T11:17:28.950Z,29.42
2018-09-01T11:18:28.924Z,29.89
2018-09-01T11:19:28.924Z,30.07
2018-09-01T11:20:28.918Z,30.32
2018-09-01T11:21:28.912Z,30.51
2018-09-01T11:22:28.911Z,30.54
2018-09-01T11:23:28.905Z,31.20
2018-09-01T11:24:28.913Z,31.75
2018-09-01T11:25:28.897Z,31.95
2018-09-01T11:26:28.891Z,32.28
2018-09-01T11:27:28.892Z,32.41
2018-09-01T11:28:28.884Z,32.57
2018-09-01T11:29:28.880Z,33.15
2018-09-01T11:30:28.878Z,33.59
2018-09-01T11:31:28.875Z,33.97
2018-09-01T11:32:28.872Z,34.16
2018-09-01T11:33:28.869Z,34.61
2018-09-01T11:34:28.866Z,35.07
2018-09-01T11:35:28.863Z,35.55
2018-09-01T11:36:28.866Z,36.15
2018-09-01T11:37:28.859Z,36.64
2018-09-01T11:38:28.861Z,37.00
2018-09-01T11:39:28.853Z,37.28
2018-09-01T11:40:28.856Z,37.74
2018-09-01T11:41:28.850Z,37.98
2018-09-01T11:42:28.937Z,38.28
2018-09-01T11:43:28.845Z,38.59
2018-09-01T11:44:28.846Z,38.81
2018-09-01T11:45:28.843Z,39.10
2018-09-01T11:46:28.841Z,39.25
2018-09-01T11:47:28.849Z,39.25
2018-09-01T11:48:28.842Z,39.29
2018-09-01T11:49:28.842Z,39.09
2018-09-01T11:50:28.838Z,39.03
2018-09-01T11:51:28.837Z,38.72
2018-09-01T11:52:28.838Z,38.59
2018-09-01T11:53:28.840Z,38.65
2018-09-01T11:54:28.838Z,38.07
2018-09-01T11:55:28.837Z,37.47
2018-09-01T11:56:28.891Z,36.94
2018-09-01T11:57:28.841Z,36.68
2018-09-01T11:58:28.915Z,36.41
2018-09-01T11:59:28.839Z,35.78
2018-09-01T12:00:28.838Z,35.33
2018-09-01T12:01:28.837Z,34.92
2018-09-01T12:02:28.834Z,34.54
2018-09-01T12:03:28.847Z,34.15
2018-09-01T12:04:28.829Z,33.90
2018-09-01T12:05:28.829Z,33.76
2018-09-01T12:06:28.833Z,33.37
2018-09-01T12:07:28.835Z,33.00
2018-09-01T12:08:28.825Z,32.79
2018-09-01T12:09:28.950Z,32.60
2018-09-01T12:10:28.820Z,32.35
2018-09-01T12:11:28.875Z,32.14
2018-09-01T12:12:28.820Z,31.99
2018-09-01T12:13:28.816Z,31.73
2018-09-01T12:14:28.816Z,31.47
2018-09-01T12:15:28.810Z,31.25
2018-09-01T12:16:28.813Z,31.06
2018-09-01T12:17:28.812Z,30.92
2018-09-01T12:18:28.804Z,30.92
2018-09-01T12:19:28.808Z,30.76
2018-09-01T12:20:28.805Z,30.76
2018-09-01T12:21:28.795Z,30.67
2018-09-01T12:22:28.797Z,30.54
2018-09-01T12:23:28.789Z,30.37
2018-09-01T12:24:28.791Z,30.22
2018-09-01T12:25:28.782Z,30.05
2018-09-01T12:26:28.788Z,29.98
2018-09-01T12:27:28.778Z,29.82
2018-09-01T12:28:28.775Z,29.57
2018-09-01T12:29:28.769Z,29.39
2018-09-01T12:30:28.768Z,29.19
2018-09-01T12:31:28.760Z,29.19
2018-09-01T12:32:28.761Z,29.14
2018-09-01T12:33:28.754Z,29.09
2018-09-01T12:34:28.747Z,29.09
2018-09-01T12:35:28.852Z,29.16
2018-09-01T12:36:28.742Z,29.19
2018-09-01T12:37:28.738Z,29.11
2018-09-01T12:38:28.733Z,28.98
2018-09-01T12:39:28.728Z,28.71
2018-09-01T12:40:28.727Z,28.46
2018-09-01T12:41:28.720Z,28.40
2018-09-01T12:42:28.715Z,28.29
2018-09-01T12:43:28.712Z,28.17
2018-09-01T12:44:28.709Z,28.14
2018-09-01T12:45:28.701Z,28.11
2018-09-01T12:46:28.696Z,28.03
2018-09-01T12:47:28.697Z,27.96
2018-09-01T12:48:28.686Z,27.88
2018-09-01T12:49:28.685Z,27.75
2018-09-01T12:50:28.680Z,27.78
2018-09-01T12:51:28.677Z,27.75
2018-09-01T12:52:28.668Z,27.78
2018-09-01T12:53:28.664Z,27.75